createdAt,value
2022-11-28T00:01:01.327Z,3.36
2022-11-28T00:03:27.700Z,3.39
2022-11-28T00:05:54.150Z,3.45
2022-11-28T00:08:20.798Z,3.46
2022-11-28T00:10:47.303Z,3.46
2022-11-28T00:13:13.958Z,3.45
2022-11-28T00:15:40.524Z,3.49
2022-11-28T00:18:06.970Z,3.54
2022-11-28T00:20:33.360Z,3.55
2022-11-28T00:22:59.718Z,3.56
2022-11-28T00:25:26.046Z,3.56
2022-11-28T00:27:52.466Z,3.56
2022-11-28T00:30:18.936Z,3.51
2022-11-28T00:32:45.265Z,3.45
2022-11-28T00:35:17.500Z,3.44
2022-11-28T00:37:44.025Z,3.46
2022-11-28T00:40:10.713Z,3.39
2022-11-28T00:42:37.044Z,3.37
2022-11-28T00:45:03.758Z,3.35
2022-11-28T00:47:30.083Z,3.39
2022-11-28T00:49:56.439Z,3.40
2022-11-28T00:52:22.780Z,3.36
2022-11-28T00:54:49.109Z,3.40
2022-11-28T00:57:15.494Z,3.43
2022-11-28T00:59:41.876Z,3.39
2022-11-28T01:02:08.267Z,3.41
2022-11-28T01:04:34.863Z,3.42
2022-11-28T01:07:02.366Z,3.48
2022-11-28T01:09:29.653Z,3.54
2022-11-28T01:11:56.462Z,3.59
2022-11-28T01:14:24.505Z,3.63
2022-11-28T01:16:50.994Z,3.65
2022-11-28T01:19:17.818Z,3.67
2022-11-28T01:21:44.526Z,3.66
2022-11-28T01:24:11.569Z,3.66
2022-11-28T01:26:40.233Z,3.61
2022-11-28T01:29:07.274Z,3.55
2022-11-28T01:31:33.983Z,3.50
2022-11-28T01:34:00.395Z,3.47
2022-11-28T01:36:27.308Z,3.45
2022-11-28T01:38:54.122Z,3.45
2022-11-28T01:41:26.174Z,3.47
2022-11-28T01:43:56.976Z,3.47
2022-11-28T01:46:23.405Z,3.50
2022-11-28T01:48:51.002Z,3.49
2022-11-28T01:51:17.644Z,3.50
2022-11-28T01:53:46.501Z,3.47
2022-11-28T01:56:17.869Z,3.49
2022-11-28T01:58:48.952Z,3.54
2022-11-28T02:01:17.061Z,3.56
2022-11-28T02:03:46.487Z,3.51
2022-11-28T02:06:14.574Z,3.47
2022-11-28T02:08:41.011Z,3.46
2022-11-28T02:11:34.025Z,3.50
2022-11-28T02:14:14.688Z,3.51
2022-11-28T02:17:02.889Z,3.53
2022-11-28T02:19:40.241Z,3.57
2022-11-28T02:22:43.584Z,3.54
2022-11-28T02:25:43.631Z,3.51
2022-11-28T02:28:29.674Z,3.51
2022-11-28T02:31:11.123Z,3.45
2022-11-28T02:33:46.551Z,3.39
2022-11-28T02:36:27.733Z,3.40
2022-11-28T02:39:05.975Z,3.34
2022-11-28T02:41:57.831Z,3.34
2022-11-28T02:44:43.109Z,3.27
2022-11-28T02:47:25.658Z,3.34
2022-11-28T02:50:07.584Z,3.36
2022-11-28T02:52:39.217Z,3.37
2022-11-28T02:55:07.406Z,3.31
2022-11-28T02:57:42.304Z,3.31
2022-11-28T03:00:27.583Z,3.36
2022-11-28T03:02:59.431Z,3.38
2022-11-28T03:06:00.314Z,3.38
2022-11-28T03:08:55.386Z,3.40
2022-11-28T03:11:52.880Z,3.37
2022-11-28T03:14:35.154Z,3.35
2022-11-28T03:17:16.631Z,3.39
2022-11-28T03:19:53.791Z,3.48
2022-11-28T03:22:32.941Z,3.54
2022-11-28T03:25:12.362Z,3.53
2022-11-28T03:27:46.607Z,3.48
2022-11-28T03:30:30.026Z,3.44
2022-11-28T03:33:00.705Z,3.33
2022-11-28T03:35:35.018Z,3.33
2022-11-28T03:38:06.951Z,3.33
2022-11-28T03:40:42.690Z,3.34
2022-11-28T03:43:13.094Z,3.32
2022-11-28T03:45:43.867Z,3.35
2022-11-28T03:48:15.686Z,3.35
2022-11-28T03:50:47.140Z,3.39
2022-11-28T03:53:24.233Z,3.37
2022-11-28T03:56:07.607Z,3.41
2022-11-28T03:58:40.143Z,3.41
2022-11-28T04:01:28.552Z,3.42
2022-11-28T04:04:32.212Z,3.46
2022-11-28T04:07:14.384Z,3.53
2022-11-28T04:09:50.080Z,3.52
2022-11-28T04:12:48.055Z,3.60
2022-11-28T04:15:26.659Z,3.63
2022-11-28T04:18:01.287Z,3.65
2022-11-28T04:20:45.775Z,3.68
2022-11-28T04:23:16.792Z,3.75
2022-11-28T04:25:50.802Z,3.81
2022-11-28T04:28:22.358Z,3.87
2022-11-28T04:30:51.198Z,3.92
2022-11-28T04:33:21.157Z,3.99
2022-11-28T04:35:51.436Z,4.02
2022-11-28T04:38:19.189Z,4.03
2022-11-28T04:41:05.697Z,3.98
2022-11-28T04:44:09.725Z,4.00
2022-11-28T04:46:43.155Z,4.01
2022-11-28T04:49:10.758Z,4.02
2022-11-28T04:51:51.235Z,4.04
2022-11-28T04:54:36.733Z,4.07
2022-11-28T04:57:14.462Z,4.12
2022-11-28T04:59:42.598Z,4.16
2022-11-28T05:02:11.475Z,4.17
2022-11-28T05:04:38.315Z,4.14
2022-11-28T05:07:06.930Z,4.14
2022-11-28T05:09:34.226Z,4.07
2022-11-28T05:12:00.653Z,3.98
2022-11-28T05:14:27.058Z,3.90
2022-11-28T05:16:53.446Z,3.80
2022-11-28T05:19:19.927Z,3.76
2022-11-28T05:21:46.281Z,3.69
2022-11-28T05:24:12.702Z,3.63
2022-11-28T05:26:39.441Z,3.61
2022-11-28T05:29:06.839Z,3.51
2022-11-28T05:31:33.839Z,3.52
2022-11-28T05:34:00.290Z,3.57
2022-11-28T05:36:26.673Z,3.57
2022-11-28T05:38:52.986Z,3.57
2022-11-28T05:41:28.438Z,3.49
2022-11-28T05:43:56.322Z,3.48
2022-11-28T05:46:23.767Z,3.42
2022-11-28T05:48:50.129Z,3.43
2022-11-28T05:51:17.177Z,3.45
2022-11-28T05:53:43.717Z,3.42
2022-11-28T05:56:13.326Z,3.42
2022-11-28T05:58:40.530Z,3.41
2022-11-28T06:01:21.671Z,3.35
2022-11-28T06:03:48.542Z,3.38
2022-11-28T06:06:21.128Z,3.45
2022-11-28T06:08:48.995Z,3.52
2022-11-28T06:11:17.382Z,3.59
2022-11-28T06:13:44.969Z,3.72
2022-11-28T06:16:13.874Z,3.73
2022-11-28T06:18:40.667Z,3.72
2022-11-28T06:21:09.344Z,3.73
2022-11-28T06:23:36.501Z,3.76
2022-11-28T06:26:08.121Z,3.69
2022-11-28T06:28:35.166Z,3.68
2022-11-28T06:31:02.205Z,3.73
2022-11-28T06:33:29.101Z,3.78
2022-11-28T06:36:04.036Z,3.81
2022-11-28T06:38:30.815Z,3.82
2022-11-28T06:40:58.456Z,3.82
2022-11-28T06:43:25.000Z,3.82
2022-11-28T06:45:51.671Z,3.85
2022-11-28T06:48:18.743Z,3.86
2022-11-28T06:50:45.248Z,3.79
2022-11-28T06:53:11.588Z,3.73
2022-11-28T06:55:37.956Z,3.75
2022-11-28T06:58:04.332Z,3.77
2022-11-28T07:00:31.177Z,3.80
2022-11-28T07:02:58.717Z,3.84
2022-11-28T07:05:27.727Z,3.80
2022-11-28T07:07:58.137Z,3.76
2022-11-28T07:10:25.753Z,3.77
2022-11-28T07:12:56.654Z,3.74
2022-11-28T07:15:23.637Z,3.71
2022-11-28T07:17:50.488Z,3.68
2022-11-28T07:20:17.539Z,3.68
2022-11-28T07:22:46.905Z,3.72
2022-11-28T07:25:14.788Z,3.76
2022-11-28T07:27:42.134Z,3.84
2022-11-28T07:30:08.980Z,3.85
2022-11-28T07:32:35.422Z,3.88
2022-11-28T07:35:01.780Z,3.94
2022-11-28T07:37:28.170Z,3.94
2022-11-28T07:39:54.577Z,4.01
2022-11-28T07:42:20.972Z,4.08
2022-11-28T07:44:47.326Z,4.10
2022-11-28T07:47:13.672Z,4.10
2022-11-28T07:49:40.775Z,4.12
2022-11-28T07:52:07.365Z,4.11
2022-11-28T07:54:33.766Z,4.15
2022-11-28T07:57:15.402Z,4.19
2022-11-28T07:59:41.970Z,4.15
2022-11-28T08:02:10.392Z,4.10
2022-11-28T08:04:37.127Z,4.16
2022-11-28T08:07:03.589Z,4.18
2022-11-28T08:09:31.715Z,4.18
2022-11-28T08:11:58.660Z,4.23
2022-11-28T08:14:25.350Z,4.24
2022-11-28T08:16:52.389Z,4.27
2022-11-28T08:19:22.931Z,4.32
2022-11-28T08:21:51.014Z,4.31
2022-11-28T08:24:17.413Z,4.39
2022-11-28T08:26:43.774Z,4.41
2022-11-28T08:29:10.289Z,4.40
2022-11-28T08:31:38.529Z,4.46
2022-11-28T08:34:09.311Z,4.50
2022-11-28T08:36:35.785Z,4.50
2022-11-28T08:41:50.917Z,4.66
2022-11-28T08:44:17.381Z,4.64
2022-11-28T08:46:44.051Z,4.65
2022-11-28T08:49:10.484Z,4.71
2022-11-28T08:51:36.896Z,4.71
2022-11-28T08:54:03.473Z,4.72
2022-11-28T08:56:29.895Z,4.73
2022-11-28T08:58:56.276Z,4.75
2022-11-28T09:01:25.303Z,4.78
2022-11-28T09:03:53.005Z,4.77
2022-11-28T09:06:20.854Z,4.80
2022-11-28T09:08:47.962Z,4.84
2022-11-28T09:11:17.246Z,4.89
2022-11-28T09:13:44.347Z,4.93
2022-11-28T09:16:10.859Z,5.02
2022-11-28T09:18:37.745Z,5.04
2022-11-28T09:21:11.656Z,5.15
2022-11-28T09:23:39.247Z,5.21
2022-11-28T09:26:09.337Z,5.24
2022-11-28T09:28:35.869Z,5.26
2022-11-28T09:31:04.676Z,5.29
2022-11-28T09:33:31.327Z,5.35
2022-11-28T09:35:58.320Z,5.31
2022-11-28T09:38:27.437Z,5.37
2022-11-28T09:40:53.888Z,5.33
2022-11-28T09:43:29.086Z,5.37
2022-11-28T09:45:57.628Z,5.47
2022-11-28T09:48:30.217Z,5.50
2022-11-28T09:51:03.958Z,5.52
2022-11-28T09:53:39.132Z,5.51
2022-11-28T09:56:13.096Z,5.60
2022-11-28T09:58:55.476Z,5.71
2022-11-28T10:01:35.352Z,5.75
2022-11-28T10:04:20.450Z,5.71
2022-11-28T10:07:00.623Z,5.69
2022-11-28T10:09:38.117Z,5.81
2022-11-28T10:12:17.019Z,5.93
2022-11-28T10:14:58.126Z,6.02
2022-11-28T10:17:50.262Z,6.13
2022-11-28T10:20:27.730Z,6.14
2022-11-28T10:23:16.684Z,6.13
2022-11-28T10:25:51.047Z,6.17
2022-11-28T10:28:25.614Z,6.24
2022-11-28T10:31:00.533Z,6.27
2022-11-28T10:33:31.980Z,6.31
2022-11-28T10:36:01.013Z,6.42
2022-11-28T10:38:29.726Z,6.52
2022-11-28T10:41:04.032Z,6.56
2022-11-28T10:43:35.701Z,6.55
2022-11-28T10:46:24.077Z,6.60
2022-11-28T10:48:58.201Z,6.64
2022-11-28T10:51:35.732Z,6.67
2022-11-28T10:54:02.033Z,6.69
2022-11-28T10:56:37.962Z,6.76
2022-11-28T10:59:21.106Z,6.83
2022-11-28T11:01:50.489Z,6.91
2022-11-28T11:04:23.644Z,6.87
2022-11-28T11:07:09.938Z,6.90
2022-11-28T11:09:38.314Z,6.92
2022-11-28T11:12:10.145Z,6.95
2022-11-28T11:14:43.051Z,6.93
2022-11-28T11:17:25.086Z,6.95
2022-11-28T11:19:51.485Z,7.01
2022-11-28T11:22:20.954Z,6.97
2022-11-28T11:25:06.856Z,6.98
2022-11-28T11:27:35.176Z,7.04
2022-11-28T11:30:16.738Z,7.01
2022-11-28T11:32:51.209Z,7.05
2022-11-28T11:35:27.672Z,7.15
2022-11-28T11:38:15.319Z,7.18
2022-11-28T11:40:41.758Z,7.32
2022-11-28T11:43:27.012Z,7.38
2022-11-28T11:46:10.171Z,7.46
2022-11-28T11:48:37.735Z,7.43
2022-11-28T11:51:04.766Z,7.34
2022-11-28T11:53:31.120Z,7.39
2022-11-28T11:56:02.314Z,7.44
2022-11-28T11:58:39.559Z,7.50
2022-11-28T12:01:06.595Z,7.47
2022-11-28T12:03:42.177Z,7.54
2022-11-28T12:06:16.902Z,7.59
2022-11-28T12:09:18.500Z,7.61
2022-11-28T12:11:51.913Z,7.72
2022-11-28T12:14:28.525Z,7.60
2022-11-28T12:17:47.365Z,7.62
2022-11-28T12:20:11.334Z,7.64
2022-11-28T12:23:17.637Z,7.50
2022-11-28T12:25:59.984Z,7.46
2022-11-28T12:28:47.492Z,7.46
2022-11-28T12:31:23.155Z,7.48
2022-11-28T12:34:18.037Z,7.54
2022-11-28T12:37:20.351Z,7.58
2022-11-28T12:40:24.344Z,7.53
2022-11-28T12:43:09.180Z,7.60
2022-11-28T12:45:45.522Z,7.53
2022-11-28T12:48:30.983Z,7.52
2022-11-28T12:51:23.707Z,7.51
2022-11-28T12:54:10.358Z,7.44
2022-11-28T12:56:49.363Z,7.19
2022-11-28T12:59:30.654Z,7.20
2022-11-28T13:02:12.823Z,7.18
2022-11-28T13:05:11.809Z,7.09
2022-11-28T13:07:56.645Z,7.17
2022-11-28T13:10:34.689Z,7.15
2022-11-28T13:13:07.779Z,7.03
2022-11-28T13:15:53.587Z,7.13
2022-11-28T13:18:19.858Z,7.04
2022-11-28T13:20:59.535Z,7.06
2022-11-28T13:23:31.807Z,7.07
2022-11-28T13:26:28.068Z,6.94
2022-11-28T13:29:29.697Z,6.93
2022-11-28T13:32:04.213Z,6.92
2022-11-28T13:34:31.356Z,6.95
2022-11-28T13:40:38.129Z,7.02
2022-11-28T13:43:14.263Z,7.02
2022-11-28T13:45:43.819Z,6.96
2022-11-28T13:49:05.999Z,6.91
2022-11-28T13:51:31.952Z,6.83
2022-11-28T13:54:27.457Z,6.75
2022-11-28T13:57:19.347Z,6.71
2022-11-28T14:00:00.160Z,6.72
2022-11-28T14:02:36.894Z,6.73
2022-11-28T14:05:05.331Z,6.76
2022-11-28T14:07:34.526Z,6.78
2022-11-28T14:10:24.352Z,6.71
2022-11-28T14:13:24.781Z,6.66
2022-11-28T14:16:03.466Z,6.55
2022-11-28T14:18:57.576Z,6.53
2022-11-28T14:21:53.160Z,6.49
2022-11-28T14:24:40.922Z,6.49
2022-11-28T14:27:12.440Z,6.50
2022-11-28T14:29:44.002Z,6.54
2022-11-28T14:32:31.185Z,6.48
2022-11-28T14:34:57.850Z,6.49
2022-11-28T14:37:28.512Z,6.48
2022-11-28T14:39:57.002Z,6.49
2022-11-28T14:42:58.984Z,6.39
2022-11-28T14:45:42.084Z,6.37
2022-11-28T14:48:23.653Z,6.30
2022-11-28T14:50:59.044Z,6.25
2022-11-28T14:53:49.807Z,6.25
2022-11-28T14:56:16.077Z,6.19
2022-11-28T14:58:47.784Z,6.21
2022-11-28T15:01:20.557Z,6.24
2022-11-28T15:04:11.939Z,6.23
2022-11-28T15:06:39.318Z,6.13
2022-11-28T15:09:28.758Z,6.06
2022-11-28T15:12:20.291Z,6.05
2022-11-28T15:14:55.071Z,6.07
2022-11-28T15:17:28.396Z,6.03
2022-11-28T15:19:57.802Z,6.00
2022-11-28T15:22:41.028Z,5.98
2022-11-28T15:25:20.815Z,5.99
2022-11-28T15:27:47.560Z,5.92
2022-11-28T15:30:19.809Z,5.92
2022-11-28T15:32:47.154Z,5.96
2022-11-28T15:35:15.722Z,5.98
2022-11-28T15:37:51.599Z,5.96
2022-11-28T15:40:21.641Z,5.90
2022-11-28T15:42:49.406Z,5.87
2022-11-28T15:45:28.976Z,5.88
2022-11-28T15:47:56.820Z,5.86
2022-11-28T15:50:26.466Z,5.88
2022-11-28T15:52:57.949Z,5.85
2022-11-28T15:55:26.852Z,5.86
2022-11-28T15:58:18.310Z,5.77
2022-11-28T16:00:50.570Z,5.76
2022-11-28T16:03:22.418Z,5.71
2022-11-28T16:05:51.719Z,5.71
2022-11-28T16:08:31.782Z,5.71
2022-11-28T16:11:01.898Z,5.71
2022-11-28T16:13:30.518Z,5.73
2022-11-28T16:16:00.004Z,5.76
2022-11-28T16:18:30.121Z,5.74
2022-11-28T16:20:59.673Z,5.71
2022-11-28T16:23:30.682Z,5.62
2022-11-28T16:26:05.290Z,5.66
2022-11-28T16:28:35.504Z,5.69
2022-11-28T16:31:02.249Z,5.64
2022-11-28T16:33:43.377Z,5.55
2022-11-28T16:36:43.221Z,5.54
2022-11-28T16:39:15.795Z,5.48
2022-11-28T16:41:48.279Z,5.51
2022-11-28T16:44:18.623Z,5.53
2022-11-28T16:46:54.614Z,5.49
2022-11-28T16:49:40.211Z,5.51
2022-11-28T16:52:21.875Z,5.40
2022-11-28T16:54:49.207Z,5.35
2022-11-28T16:57:16.357Z,5.26
2022-11-28T16:59:44.696Z,5.17
2022-11-28T17:02:18.383Z,5.14
2022-11-28T17:04:45.877Z,5.15
2022-11-28T17:07:15.380Z,5.21
2022-11-28T17:09:43.461Z,5.19
2022-11-28T17:12:23.002Z,5.17
2022-11-28T17:14:49.504Z,5.16
2022-11-28T17:17:18.137Z,5.18
2022-11-28T17:19:45.471Z,5.21
2022-11-28T17:22:15.604Z,5.22
2022-11-28T17:24:42.881Z,5.22
2022-11-28T17:27:12.460Z,5.22
2022-11-28T17:29:39.103Z,5.18
2022-11-28T17:32:06.088Z,5.20
2022-11-28T17:34:37.376Z,5.14
2022-11-28T17:37:05.140Z,5.12
2022-11-28T17:39:31.409Z,5.13
2022-11-28T17:41:58.818Z,5.18
2022-11-28T17:44:37.586Z,5.18
2022-11-28T17:47:04.561Z,5.20
2022-11-28T17:49:31.200Z,5.16
2022-11-28T17:51:57.769Z,5.20
2022-11-28T17:54:26.516Z,5.20
2022-11-28T17:56:53.393Z,5.12
2022-11-28T17:59:22.811Z,5.16
2022-11-28T18:01:49.869Z,5.20
2022-11-28T18:04:17.029Z,5.20
2022-11-28T18:06:45.316Z,5.17
2022-11-28T18:09:12.754Z,5.10
2022-11-28T18:11:40.878Z,5.11
2022-11-28T18:14:07.537Z,5.15
2022-11-28T18:16:36.112Z,5.19
2022-11-28T18:19:04.029Z,5.20
2022-11-28T18:21:30.627Z,5.20
2022-11-28T18:23:57.062Z,5.23
2022-11-28T18:26:25.920Z,5.25
2022-11-28T18:28:52.895Z,5.26
2022-11-28T18:31:22.654Z,5.25
2022-11-28T18:33:49.215Z,5.21
2022-11-28T18:36:17.029Z,5.22
2022-11-28T18:38:45.101Z,5.24
2022-11-28T18:41:12.729Z,5.30
2022-11-28T18:43:39.128Z,5.34
2022-11-28T18:46:10.876Z,5.40
2022-11-28T18:48:39.197Z,5.46
2022-11-28T18:51:22.782Z,5.50
2022-11-28T18:53:50.763Z,5.47
2022-11-28T18:56:17.787Z,5.44
2022-11-28T18:58:46.888Z,5.47
2022-11-28T19:01:18.758Z,5.45
2022-11-28T19:03:51.127Z,5.43
2022-11-28T19:06:17.862Z,5.35
2022-11-28T19:08:44.280Z,5.35
2022-11-28T19:11:14.452Z,5.31
2022-11-28T19:13:45.592Z,5.25
2022-11-28T19:16:17.698Z,5.20
2022-11-28T19:18:44.914Z,5.13
2022-11-28T19:21:25.674Z,5.04
2022-11-28T19:23:52.153Z,5.04
2022-11-28T19:26:21.050Z,5.05
2022-11-28T19:28:47.939Z,5.07
2022-11-28T19:31:21.202Z,5.04
2022-11-28T19:33:57.527Z,5.02
2022-11-28T19:36:28.239Z,5.08
2022-11-28T19:38:54.668Z,5.13
2022-11-28T19:41:22.410Z,5.13
2022-11-28T19:43:49.092Z,5.14
2022-11-28T19:46:16.267Z,5.17
2022-11-28T19:48:43.702Z,5.20
2022-11-28T19:51:12.260Z,5.24
2022-11-28T19:53:41.109Z,5.30
2022-11-28T19:56:13.689Z,5.32
2022-11-28T19:58:40.689Z,5.35
2022-11-28T20:01:09.829Z,5.40
2022-11-28T20:03:38.025Z,5.45
2022-11-28T20:06:19.152Z,5.48
2022-11-28T20:08:46.592Z,5.48
2022-11-28T20:11:21.141Z,5.48
2022-11-28T20:13:47.800Z,5.52
2022-11-28T20:16:17.722Z,5.58
2022-11-28T20:18:45.254Z,5.61
2022-11-28T20:21:17.243Z,5.64
2022-11-28T20:23:46.361Z,5.65
2022-11-28T20:26:14.681Z,5.66
2022-11-28T20:28:42.286Z,5.65
2022-11-28T20:31:19.121Z,5.65
2022-11-28T20:33:45.555Z,5.67
2022-11-28T20:36:14.300Z,5.63
2022-11-28T20:38:40.975Z,5.58
2022-11-28T20:41:09.740Z,5.55
2022-11-28T20:43:38.133Z,5.53
2022-11-28T20:46:06.590Z,5.48
2022-11-28T20:48:33.197Z,5.42
2022-11-28T20:50:59.573Z,5.39
2022-11-28T20:53:27.107Z,5.37
2022-11-28T20:56:01.100Z,5.38
2022-11-28T20:58:27.615Z,5.43
2022-11-28T21:00:54.272Z,5.42
2022-11-28T21:03:20.801Z,5.40
2022-11-28T21:05:47.479Z,5.40
2022-11-28T21:08:13.883Z,5.38
2022-11-28T21:10:40.314Z,5.37
2022-11-28T21:13:07.217Z,5.31
2022-11-28T21:15:33.605Z,5.29
2022-11-28T21:17:59.982Z,5.28
2022-11-28T21:20:26.315Z,5.30
2022-11-28T21:22:52.760Z,5.35
2022-11-28T21:25:19.095Z,5.38
2022-11-28T21:27:45.430Z,5.40
2022-11-28T21:30:11.929Z,5.39
2022-11-28T21:32:38.494Z,5.36
2022-11-28T21:35:05.344Z,5.32
2022-11-28T21:37:31.765Z,5.31
2022-11-28T21:39:58.116Z,5.27
2022-11-28T21:42:24.679Z,5.24
2022-11-28T21:44:51.065Z,5.26
2022-11-28T21:47:17.417Z,5.24
2022-11-28T21:49:44.098Z,5.25
2022-11-28T21:52:11.436Z,5.27
2022-11-28T21:54:37.754Z,5.26
2022-11-28T21:57:04.209Z,5.26
2022-11-28T21:59:31.753Z,5.24
2022-11-28T22:01:59.426Z,5.23
2022-11-28T22:04:25.836Z,5.19
2022-11-28T22:06:52.186Z,5.16
2022-11-28T22:09:18.611Z,5.15
2022-11-28T22:11:44.973Z,5.15
2022-11-28T22:14:11.302Z,5.11
2022-11-28T22:16:37.705Z,5.04
2022-11-28T22:19:04.857Z,5.00
2022-11-28T22:22:01.236Z,5.00
2022-11-28T22:24:17.960Z,5.00
2022-11-28T22:26:44.599Z,5.02
2022-11-28T22:29:11.038Z,5.07
2022-11-28T22:31:37.557Z,5.03
2022-11-28T22:34:03.970Z,5.03
2022-11-28T22:36:31.982Z,5.00
2022-11-28T22:38:58.835Z,4.97
2022-11-28T22:41:29.300Z,4.98
2022-11-28T22:43:59.376Z,4.97
2022-11-28T22:46:26.504Z,4.98
2022-11-28T22:48:53.063Z,4.95
2022-11-28T22:51:23.021Z,4.94
2022-11-28T22:53:54.335Z,4.93
2022-11-28T22:56:20.802Z,4.83
2022-11-28T22:58:47.766Z,4.83
2022-11-28T23:01:25.735Z,4.85
2022-11-28T23:03:53.180Z,4.85
2022-11-28T23:06:22.068Z,4.86
2022-11-28T23:08:50.346Z,4.90
2022-11-28T23:11:19.980Z,4.89
2022-11-28T23:13:49.962Z,4.85
2022-11-28T23:16:20.991Z,4.83
2022-11-28T23:18:49.251Z,4.81
2022-11-28T23:21:16.809Z,4.82
2022-11-28T23:23:45.938Z,4.81
2022-11-28T23:26:21.896Z,4.81
2022-11-28T23:28:49.016Z,4.81
2022-11-28T23:31:16.946Z,4.85
2022-11-28T23:33:43.686Z,4.83
2022-11-28T23:36:22.245Z,4.80
2022-11-28T23:38:51.006Z,4.79
2022-11-28T23:41:17.896Z,4.78
2022-11-28T23:43:44.542Z,4.78
2022-11-28T23:46:11.996Z,4.73
2022-11-28T23:48:38.948Z,4.77
2022-11-28T23:51:06.261Z,4.78
2022-11-28T23:53:33.514Z,4.77
2022-11-28T23:56:07.997Z,4.74
2022-11-28T23:58:34.771Z,4.71
